sensor_id;sensor_type;location;lat;lon;timestamp;P1;durP1;ratioP1;P2;durP2;ratioP2
19965;SDS011;10144;50.874;4.762;2024-01-27T00:00:30;23.10;;;4.70;;
19965;SDS011;10144;50.874;4.762;2024-01-27T00:02:56;19.20;;;4.80;;
19965;SDS011;10144;50.874;4.762;2024-01-27T00:05:22;29.33;;;5.97;;
19965;SDS011;10144;50.874;4.762;2024-01-27T00:07:48;27.40;;;5.50;;
19965;SDS011;10144;50.874;4.762;2024-01-27T00:15:11;24.17;;;4.97;;
19965;SDS011;10144;50.874;4.762;2024-01-27T00:17:37;26.33;;;5.33;;
19965;SDS011;10144;50.874;4.762;2024-01-27T00:20:03;23.10;;;4.87;;
19965;SDS011;10144;50.874;4.762;2024-01-27T00:22:29;27.90;;;5.10;;
19965;SDS011;10144;50.874;4.762;2024-01-27T00:24:55;22.70;;;4.73;;
19965;SDS011;10144;50.874;4.762;2024-01-27T00:27:21;18.40;;;4.50;;
19965;SDS011;10144;50.874;4.762;2024-01-27T00:29:47;19.70;;;4.70;;
19965;SDS011;10144;50.874;4.762;2024-01-27T00:34:45;26.50;;;4.73;;
19965;SDS011;10144;50.874;4.762;2024-01-27T00:37:11;22.00;;;4.50;;
19965;SDS011;10144;50.874;4.762;2024-01-27T00:39:38;19.23;;;4.07;;
19965;SDS011;10144;50.874;4.762;2024-01-27T00:42:03;22.67;;;4.30;;
19965;SDS011;10144;50.874;4.762;2024-01-27T00:44:29;24.27;;;4.73;;
19965;SDS011;10144;50.874;4.762;2024-01-27T00:46:55;22.40;;;5.13;;
19965;SDS011;10144;50.874;4.762;2024-01-27T00:49:21;33.13;;;4.67;;
19965;SDS011;10144;50.874;4.762;2024-01-27T00:51:46;16.80;;;4.27;;
19965;SDS011;10144;50.874;4.762;2024-01-27T00:54:12;18.87;;;4.20;;
19965;SDS011;10144;50.874;4.762;2024-01-27T00:56:38;25.00;;;4.53;;
19965;SDS011;10144;50.874;4.762;2024-01-27T00:59:10;24.73;;;4.47;;
19965;SDS011;10144;50.874;4.762;2024-01-27T01:04:07;20.57;;;4.30;;
19965;SDS011;10144;50.874;4.762;2024-01-27T01:06:35;25.20;;;4.63;;
19965;SDS011;10144;50.874;4.762;2024-01-27T01:09:07;18.30;;;3.90;;
19965;SDS011;10144;50.874;4.762;2024-01-27T01:11:34;16.83;;;4.10;;
19965;SDS011;10144;50.874;4.762;2024-01-27T01:14:01;20.87;;;4.47;;
19965;SDS011;10144;50.874;4.762;2024-01-27T01:18:59;27.20;;;5.27;;
19965;SDS011;10144;50.874;4.762;2024-01-27T01:23:54;26.23;;;4.90;;
19965;SDS011;10144;50.874;4.762;2024-01-27T01:28:51;23.60;;;5.00;;
19965;SDS011;10144;50.874;4.762;2024-01-27T01:33:52;17.17;;;5.00;;
19965;SDS011;10144;50.874;4.762;2024-01-27T01:36:18;21.47;;;5.20;;
19965;SDS011;10144;50.874;4.762;2024-01-27T01:38:45;20.17;;;5.00;;
19965;SDS011;10144;50.874;4.762;2024-01-27T01:43:41;27.53;;;5.57;;
19965;SDS011;10144;50.874;4.762;2024-01-27T01:46:08;26.40;;;6.00;;
19965;SDS011;10144;50.874;4.762;2024-01-27T01:48:37;26.60;;;5.80;;
19965;SDS011;10144;50.874;4.762;2024-01-27T01:51:05;29.07;;;5.87;;
19965;SDS011;10144;50.874;4.762;2024-01-27T01:53:33;24.20;;;5.60;;
19965;SDS011;10144;50.874;4.762;2024-01-27T01:56:00;23.27;;;5.90;;
19965;SDS011;10144;50.874;4.762;2024-01-27T01:58:30;31.37;;;7.40;;
19965;SDS011;10144;50.874;4.762;2024-01-27T02:03:56;29.97;;;6.70;;
19965;SDS011;10144;50.874;4.762;2024-01-27T02:06:25;28.70;;;6.13;;
19965;SDS011;10144;50.874;4.762;2024-01-27T02:08:53;34.53;;;6.50;;
19965;SDS011;10144;50.874;4.762;2024-01-27T02:11:22;28.67;;;5.80;;
19965;SDS011;10144;50.874;4.762;2024-01-27T02:13:51;30.00;;;6.13;;
19965;SDS011;10144;50.874;4.762;2024-01-27T02:16:20;30.33;;;6.83;;
19965;SDS011;10144;50.874;4.762;2024-01-27T02:18:49;27.00;;;6.30;;
19965;SDS011;10144;50.874;4.762;2024-01-27T02:21:15;31.00;;;6.73;;
19965;SDS011;10144;50.874;4.762;2024-01-27T02:23:43;26.40;;;6.17;;
19965;SDS011;10144;50.874;4.762;2024-01-27T02:26:11;25.43;;;5.70;;
19965;SDS011;10144;50.874;4.762;2024-01-27T02:31:06;22.77;;;5.60;;
19965;SDS011;10144;50.874;4.762;2024-01-27T02:36:05;27.30;;;6.40;;
19965;SDS011;10144;50.874;4.762;2024-01-27T02:38:37;31.03;;;6.27;;
19965;SDS011;10144;50.874;4.762;2024-01-27T02:41:03;25.73;;;5.53;;
19965;SDS011;10144;50.874;4.762;2024-01-27T02:43:36;26.63;;;5.87;;
19965;SDS011;10144;50.874;4.762;2024-01-27T02:46:06;28.20;;;5.97;;
19965;SDS011;10144;50.874;4.762;2024-01-27T02:48:39;23.83;;;5.43;;
19965;SDS011;10144;50.874;4.762;2024-01-27T02:51:08;26.40;;;6.17;;
19965;SDS011;10144;50.874;4.762;2024-01-27T02:53:35;20.57;;;5.40;;
19965;SDS011;10144;50.874;4.762;2024-01-27T02:56:01;26.07;;;6.70;;
19965;SDS011;10144;50.874;4.762;2024-01-27T02:58:37;24.53;;;5.83;;
19965;SDS011;10144;50.874;4.762;2024-01-27T03:01:05;27.77;;;5.80;;
19965;SDS011;10144;50.874;4.762;2024-01-27T03:06:03;24.27;;;6.27;;
19965;SDS011;10144;50.874;4.762;2024-01-27T03:08:35;20.93;;;5.87;;
19965;SDS011;10144;50.874;4.762;2024-01-27T03:13:33;32.93;;;6.53;;
19965;SDS011;10144;50.874;4.762;2024-01-27T03:16:01;25.70;;;6.03;;
19965;SDS011;10144;50.874;4.762;2024-01-27T03:18:35;23.20;;;5.97;;
19965;SDS011;10144;50.874;4.762;2024-01-27T03:21:08;29.30;;;6.27;;
19965;SDS011;10144;50.874;4.762;2024-01-27T03:23:34;27.70;;;6.73;;
19965;SDS011;10144;50.874;4.762;2024-01-27T03:26:15;29.17;;;7.10;;
19965;SDS011;10144;50.874;4.762;2024-01-27T03:28:42;28.33;;;6.20;;
19965;SDS011;10144;50.874;4.762;2024-01-27T03:34:22;30.70;;;6.40;;
19965;SDS011;10144;50.874;4.762;2024-01-27T03:39:21;35.73;;;6.80;;
19965;SDS011;10144;50.874;4.762;2024-01-27T03:41:47;35.17;;;7.40;;
19965;SDS011;10144;50.874;4.762;2024-01-27T03:46:44;34.50;;;7.27;;
19965;SDS011;10144;50.874;4.762;2024-01-27T03:49:10;30.33;;;7.17;;
19965;SDS011;10144;50.874;4.762;2024-01-27T03:54:27;31.87;;;7.10;;
19965;SDS011;10144;50.874;4.762;2024-01-27T03:56:58;24.17;;;6.67;;
19965;SDS011;10144;50.874;4.762;2024-01-27T03:59:25;35.73;;;8.30;;
19965;SDS011;10144;50.874;4.762;2024-01-27T04:04:23;34.93;;;8.17;;
19965;SDS011;10144;50.874;4.762;2024-01-27T04:06:55;28.60;;;7.63;;
19965;SDS011;10144;50.874;4.762;2024-01-27T04:11:53;31.57;;;7.73;;
19965;SDS011;10144;50.874;4.762;2024-01-27T04:14:19;28.13;;;8.80;;
19965;SDS011;10144;50.874;4.762;2024-01-27T04:16:45;32.17;;;7.57;;
19965;SDS011;10144;50.874;4.762;2024-01-27T04:19:12;36.97;;;7.97;;
19965;SDS011;10144;50.874;4.762;2024-01-27T04:21:44;30.00;;;7.57;;
19965;SDS011;10144;50.874;4.762;2024-01-27T04:24:20;33.47;;;8.47;;
19965;SDS011;10144;50.874;4.762;2024-01-27T04:26:46;35.30;;;8.03;;
19965;SDS011;10144;50.874;4.762;2024-01-27T04:29:11;30.73;;;8.30;;
19965;SDS011;10144;50.874;4.762;2024-01-27T04:31:43;36.67;;;8.30;;
19965;SDS011;10144;50.874;4.762;2024-01-27T04:34:10;32.53;;;8.10;;
19965;SDS011;10144;50.874;4.762;2024-01-27T04:36:41;37.20;;;7.83;;
19965;SDS011;10144;50.874;4.762;2024-01-27T04:39:08;30.53;;;7.53;;
19965;SDS011;10144;50.874;4.762;2024-01-27T04:41:43;36.30;;;7.80;;
19965;SDS011;10144;50.874;4.762;2024-01-27T04:44:12;36.83;;;8.17;;
19965;SDS011;10144;50.874;4.762;2024-01-27T04:46:40;30.03;;;8.10;;
19965;SDS011;10144;50.874;4.762;2024-01-27T04:49:09;32.13;;;7.37;;
19965;SDS011;10144;50.874;4.762;2024-01-27T04:51:42;38.07;;;8.90;;
19965;SDS011;10144;50.874;4.762;2024-01-27T04:56:49;31.93;;;8.03;;
19965;SDS011;10144;50.874;4.762;2024-01-27T04:59:18;37.00;;;8.33;;
19965;SDS011;10144;50.874;4.762;2024-01-27T05:01:46;33.17;;;7.97;;
19965;SDS011;10144;50.874;4.762;2024-01-27T05:04:12;37.93;;;7.90;;
19965;SDS011;10144;50.874;4.762;2024-01-27T05:09:12;29.67;;;8.50;;
19965;SDS011;10144;50.874;4.762;2024-01-27T05:16:42;26.87;;;8.27;;
19965;SDS011;10144;50.874;4.762;2024-01-27T05:19:11;33.00;;;8.63;;
19965;SDS011;10144;50.874;4.762;2024-01-27T05:21:40;34.60;;;8.23;;
19965;SDS011;10144;50.874;4.762;2024-01-27T05:24:07;36.90;;;9.13;;
19965;SDS011;10144;50.874;4.762;2024-01-27T05:26:36;34.57;;;8.50;;
19965;SDS011;10144;50.874;4.762;2024-01-27T05:29:05;35.53;;;9.63;;
19965;SDS011;10144;50.874;4.762;2024-01-27T05:31:34;40.50;;;8.60;;
19965;SDS011;10144;50.874;4.762;2024-01-27T05:36:31;34.70;;;8.70;;
19965;SDS011;10144;50.874;4.762;2024-01-27T05:38:57;31.63;;;8.70;;
19965;SDS011;10144;50.874;4.762;2024-01-27T05:46:45;36.63;;;8.73;;
19965;SDS011;10144;50.874;4.762;2024-01-27T05:49:14;37.03;;;8.70;;
19965;SDS011;10144;50.874;4.762;2024-01-27T05:54:16;27.97;;;8.50;;
19965;SDS011;10144;50.874;4.762;2024-01-27T05:56:48;31.47;;;8.70;;
19965;SDS011;10144;50.874;4.762;2024-01-27T05:59:16;36.03;;;9.13;;
19965;SDS011;10144;50.874;4.762;2024-01-27T06:04:43;39.40;;;9.30;;
19965;SDS011;10144;50.874;4.762;2024-01-27T06:07:08;32.90;;;9.63;;
19965;SDS011;10144;50.874;4.762;2024-01-27T06:12:20;37.10;;;9.67;;
19965;SDS011;10144;50.874;4.762;2024-01-27T06:14:49;36.93;;;9.00;;
19965;SDS011;10144;50.874;4.762;2024-01-27T06:17:14;27.10;;;8.50;;
19965;SDS011;10144;50.874;4.762;2024-01-27T06:19:41;30.07;;;8.63;;
19965;SDS011;10144;50.874;4.762;2024-01-27T06:22:16;35.50;;;8.83;;
19965;SDS011;10144;50.874;4.762;2024-01-27T06:24:45;21.80;;;7.80;;
19965;SDS011;10144;50.874;4.762;2024-01-27T06:27:14;33.90;;;8.57;;
19965;SDS011;10144;50.874;4.762;2024-01-27T06:29:40;36.17;;;9.73;;
19965;SDS011;10144;50.874;4.762;2024-01-27T06:34:39;34.07;;;8.67;;
19965;SDS011;10144;50.874;4.762;2024-01-27T06:37:05;35.40;;;9.57;;
19965;SDS011;10144;50.874;4.762;2024-01-27T06:39:34;36.70;;;8.87;;
19965;SDS011;10144;50.874;4.762;2024-01-27T06:42:01;38.70;;;10.00;;
19965;SDS011;10144;50.874;4.762;2024-01-27T06:49:27;34.60;;;9.00;;
19965;SDS011;10144;50.874;4.762;2024-01-27T06:51:54;47.47;;;10.20;;
19965;SDS011;10144;50.874;4.762;2024-01-27T06:54:23;35.93;;;9.70;;
19965;SDS011;10144;50.874;4.762;2024-01-27T06:59:20;39.07;;;9.20;;
19965;SDS011;10144;50.874;4.762;2024-01-27T07:04:16;26.23;;;8.20;;
19965;SDS011;10144;50.874;4.762;2024-01-27T07:06:44;39.03;;;8.73;;
19965;SDS011;10144;50.874;4.762;2024-01-27T07:09:13;29.50;;;8.27;;
19965;SDS011;10144;50.874;4.762;2024-01-27T07:11:40;33.80;;;9.33;;
19965;SDS011;10144;50.874;4.762;2024-01-27T07:17:27;34.57;;;8.73;;
19965;SDS011;10144;50.874;4.762;2024-01-27T07:23:15;35.43;;;7.63;;
19965;SDS011;10144;50.874;4.762;2024-01-27T07:29:04;30.33;;;8.37;;
19965;SDS011;10144;50.874;4.762;2024-01-27T07:34:52;31.73;;;7.53;;
19965;SDS011;10144;50.874;4.762;2024-01-27T07:40:40;31.37;;;7.70;;
19965;SDS011;10144;50.874;4.762;2024-01-27T07:46:27;30.10;;;7.93;;
19965;SDS011;10144;50.874;4.762;2024-01-27T07:52:15;34.30;;;7.90;;
19965;SDS011;10144;50.874;4.762;2024-01-27T07:58:03;28.63;;;7.13;;
19965;SDS011;10144;50.874;4.762;2024-01-27T08:03:51;25.67;;;6.47;;
19965;SDS011;10144;50.874;4.762;2024-01-27T08:09:38;26.47;;;6.97;;
19965;SDS011;10144;50.874;4.762;2024-01-27T08:15:27;23.97;;;5.83;;
19965;SDS011;10144;50.874;4.762;2024-01-27T08:21:15;20.90;;;5.83;;
19965;SDS011;10144;50.874;4.762;2024-01-27T08:27:02;17.47;;;5.30;;
19965;SDS011;10144;50.874;4.762;2024-01-27T08:32:50;22.93;;;6.27;;
19965;SDS011;10144;50.874;4.762;2024-01-27T08:38:38;22.50;;;5.50;;
19965;SDS011;10144;50.874;4.762;2024-01-27T08:44:26;18.13;;;5.10;;
19965;SDS011;10144;50.874;4.762;2024-01-27T08:50:14;21.53;;;5.20;;
19965;SDS011;10144;50.874;4.762;2024-01-27T08:56:02;18.63;;;4.78;;
19965;SDS011;10144;50.874;4.762;2024-01-27T09:07:52;18.77;;;5.13;;
19965;SDS011;10144;50.874;4.762;2024-01-27T09:10:20;16.52;;;4.30;;
19965;SDS011;10144;50.874;4.762;2024-01-27T09:15:16;19.08;;;4.60;;
19965;SDS011;10144;50.874;4.762;2024-01-27T09:17:43;15.68;;;4.95;;
19965;SDS011;10144;50.874;4.762;2024-01-27T09:22:37;15.75;;;4.40;;
19965;SDS011;10144;50.874;4.762;2024-01-27T09:25:04;15.93;;;4.45;;
19965;SDS011;10144;50.874;4.762;2024-01-27T09:27:35;15.93;;;4.50;;
19965;SDS011;10144;50.874;4.762;2024-01-27T09:30:02;14.75;;;3.63;;
19965;SDS011;10144;50.874;4.762;2024-01-27T09:32:34;19.30;;;4.57;;
19965;SDS011;10144;50.874;4.762;2024-01-27T09:35:00;14.68;;;3.97;;
19965;SDS011;10144;50.874;4.762;2024-01-27T09:40:01;15.27;;;3.70;;
19965;SDS011;10144;50.874;4.762;2024-01-27T09:42:32;20.08;;;3.63;;
19965;SDS011;10144;50.874;4.762;2024-01-27T09:45:03;17.23;;;3.80;;
19965;SDS011;10144;50.874;4.762;2024-01-27T09:47:36;14.13;;;3.60;;
19965;SDS011;10144;50.874;4.762;2024-01-27T09:50:05;17.80;;;3.78;;
19965;SDS011;10144;50.874;4.762;2024-01-27T09:52:34;16.65;;;4.07;;
19965;SDS011;10144;50.874;4.762;2024-01-27T09:55:05;13.68;;;3.38;;
19965;SDS011;10144;50.874;4.762;2024-01-27T10:02:35;13.95;;;3.72;;
19965;SDS011;10144;50.874;4.762;2024-01-27T10:05:03;10.13;;;3.15;;
19965;SDS011;10144;50.874;4.762;2024-01-27T10:07:32;12.20;;;2.97;;
19965;SDS011;10144;50.874;4.762;2024-01-27T10:10:00;14.02;;;3.13;;
19965;SDS011;10144;50.874;4.762;2024-01-27T10:12:36;13.32;;;3.40;;
19965;SDS011;10144;50.874;4.762;2024-01-27T10:15:05;14.43;;;3.35;;
19965;SDS011;10144;50.874;4.762;2024-01-27T10:17:33;11.23;;;3.40;;
19965;SDS011;10144;50.874;4.762;2024-01-27T10:20:05;14.95;;;3.63;;
19965;SDS011;10144;50.874;4.762;2024-01-27T10:22:42;16.88;;;3.90;;
19965;SDS011;10144;50.874;4.762;2024-01-27T10:25:10;17.20;;;3.78;;
19965;SDS011;10144;50.874;4.762;2024-01-27T10:27:36;15.57;;;4.10;;
19965;SDS011;10144;50.874;4.762;2024-01-27T10:30:35;11.95;;;3.72;;
19965;SDS011;10144;50.874;4.762;2024-01-27T10:35:24;16.73;;;4.00;;
19965;SDS011;10144;50.874;4.762;2024-01-27T10:37:59;18.15;;;3.75;;
19965;SDS011;10144;50.874;4.762;2024-01-27T10:40:25;13.63;;;3.75;;
19965;SDS011;10144;50.874;4.762;2024-01-27T10:43:00;15.57;;;3.75;;
19965;SDS011;10144;50.874;4.762;2024-01-27T10:45:27;17.38;;;3.70;;
19965;SDS011;10144;50.874;4.762;2024-01-27T10:48:15;15.20;;;3.80;;
19965;SDS011;10144;50.874;4.762;2024-01-27T10:53:17;16.40;;;3.83;;
19965;SDS011;10144;50.874;4.762;2024-01-27T10:55:57;17.88;;;4.07;;
19965;SDS011;10144;50.874;4.762;2024-01-27T10:58:24;19.10;;;4.13;;
19965;SDS011;10144;50.874;4.762;2024-01-27T11:00:52;19.20;;;4.15;;
19965;SDS011;10144;50.874;4.762;2024-01-27T11:03:18;19.10;;;4.45;;
19965;SDS011;10144;50.874;4.762;2024-01-27T11:05:46;19.70;;;4.00;;
19965;SDS011;10144;50.874;4.762;2024-01-27T11:08:12;16.30;;;4.07;;
19965;SDS011;10144;50.874;4.762;2024-01-27T11:10:42;16.20;;;4.22;;
19965;SDS011;10144;50.874;4.762;2024-01-27T11:13:11;14.55;;;4.25;;
19965;SDS011;10144;50.874;4.762;2024-01-27T11:18:15;16.15;;;3.83;;
19965;SDS011;10144;50.874;4.762;2024-01-27T11:20:47;15.80;;;4.07;;
19965;SDS011;10144;50.874;4.762;2024-01-27T11:25:42;18.33;;;4.25;;
19965;SDS011;10144;50.874;4.762;2024-01-27T11:28:14;18.42;;;4.55;;
19965;SDS011;10144;50.874;4.762;2024-01-27T11:30:45;13.70;;;3.67;;
19965;SDS011;10144;50.874;4.762;2024-01-27T11:33:15;13.90;;;3.78;;
19965;SDS011;10144;50.874;4.762;2024-01-27T11:35:43;18.77;;;4.65;;
19965;SDS011;10144;50.874;4.762;2024-01-27T11:38:14;13.52;;;4.20;;
19965;SDS011;10144;50.874;4.762;2024-01-27T11:40:46;12.05;;;4.00;;
19965;SDS011;10144;50.874;4.762;2024-01-27T11:43:18;14.60;;;4.20;;
19965;SDS011;10144;50.874;4.762;2024-01-27T11:48:27;19.08;;;3.95;;
19965;SDS011;10144;50.874;4.762;2024-01-27T11:51:06;15.50;;;4.57;;
19965;SDS011;10144;50.874;4.762;2024-01-27T11:53:37;19.30;;;3.95;;
19965;SDS011;10144;50.874;4.762;2024-01-27T11:56:05;12.88;;;3.83;;
19965;SDS011;10144;50.874;4.762;2024-01-27T11:58:32;15.35;;;4.25;;
19965;SDS011;10144;50.874;4.762;2024-01-27T12:03:28;16.17;;;4.30;;
19965;SDS011;10144;50.874;4.762;2024-01-27T12:05:55;12.18;;;3.83;;
19965;SDS011;10144;50.874;4.762;2024-01-27T12:08:24;17.63;;;4.13;;
19965;SDS011;10144;50.874;4.762;2024-01-27T12:10:52;14.05;;;3.53;;
19965;SDS011;10144;50.874;4.762;2024-01-27T12:13:21;10.63;;;3.38;;
19965;SDS011;10144;50.874;4.762;2024-01-27T12:18:16;18.98;;;3.65;;
19965;SDS011;10144;50.874;4.762;2024-01-27T12:20:44;19.63;;;3.30;;
19965;SDS011;10144;50.874;4.762;2024-01-27T12:23:12;13.15;;;3.15;;
19965;SDS011;10144;50.874;4.762;2024-01-27T12:25:52;11.02;;;3.05;;
19965;SDS011;10144;50.874;4.762;2024-01-27T12:28:20;11.43;;;3.08;;
19965;SDS011;10144;50.874;4.762;2024-01-27T12:35:52;10.38;;;2.80;;
19965;SDS011;10144;50.874;4.762;2024-01-27T12:38:22;10.47;;;2.90;;
19965;SDS011;10144;50.874;4.762;2024-01-27T12:40:49;14.07;;;2.63;;
19965;SDS011;10144;50.874;4.762;2024-01-27T12:43:16;20.70;;;3.60;;
19965;SDS011;10144;50.874;4.762;2024-01-27T12:45:44;13.17;;;2.70;;
19965;SDS011;10144;50.874;4.762;2024-01-27T12:48:22;12.15;;;2.45;;
19965;SDS011;10144;50.874;4.762;2024-01-27T12:50:51;9.80;;;2.80;;
19965;SDS011;10144;50.874;4.762;2024-01-27T12:53:17;12.07;;;2.40;;
19965;SDS011;10144;50.874;4.762;2024-01-27T12:55:46;11.65;;;2.35;;
19965;SDS011;10144;50.874;4.762;2024-01-27T13:00:44;6.38;;;2.10;;
19965;SDS011;10144;50.874;4.762;2024-01-27T13:03:10;15.57;;;3.08;;
19965;SDS011;10144;50.874;4.762;2024-01-27T13:05:37;11.02;;;2.30;;
19965;SDS011;10144;50.874;4.762;2024-01-27T13:08:04;6.17;;;2.00;;
19965;SDS011;10144;50.874;4.762;2024-01-27T13:10:34;16.73;;;2.40;;
19965;SDS011;10144;50.874;4.762;2024-01-27T13:12:59;12.67;;;2.10;;
19965;SDS011;10144;50.874;4.762;2024-01-27T13:15:25;13.33;;;2.43;;
19965;SDS011;10144;50.874;4.762;2024-01-27T13:17:57;11.10;;;2.23;;
19965;SDS011;10144;50.874;4.762;2024-01-27T13:23:00;10.27;;;2.10;;
19965;SDS011;10144;50.874;4.762;2024-01-27T13:25:27;11.75;;;2.25;;
19965;SDS011;10144;50.874;4.762;2024-01-27T13:27:53;8.43;;;2.15;;
19965;SDS011;10144;50.874;4.762;2024-01-27T13:30:20;8.50;;;2.10;;
19965;SDS011;10144;50.874;4.762;2024-01-27T13:32:46;5.97;;;2.20;;
19965;SDS011;10144;50.874;4.762;2024-01-27T13:35:14;18.65;;;3.10;;
19965;SDS011;10144;50.874;4.762;2024-01-27T13:37:43;14.05;;;2.47;;
19965;SDS011;10144;50.874;4.762;2024-01-27T13:40:09;9.55;;;2.22;;
19965;SDS011;10144;50.874;4.762;2024-01-27T13:42:38;8.98;;;2.25;;
19965;SDS011;10144;50.874;4.762;2024-01-27T13:47:36;7.53;;;1.77;;
19965;SDS011;10144;50.874;4.762;2024-01-27T13:50:09;9.50;;;2.13;;
19965;SDS011;10144;50.874;4.762;2024-01-27T13:52:36;9.60;;;2.27;;
19965;SDS011;10144;50.874;4.762;2024-01-27T13:55:02;6.97;;;1.70;;
19965;SDS011;10144;50.874;4.762;2024-01-27T13:57:28;11.55;;;1.98;;
19965;SDS011;10144;50.874;4.762;2024-01-27T14:02:25;14.73;;;2.25;;
19965;SDS011;10144;50.874;4.762;2024-01-27T14:07:20;8.33;;;2.40;;
19965;SDS011;10144;50.874;4.762;2024-01-27T14:09:49;10.17;;;2.40;;
19965;SDS011;10144;50.874;4.762;2024-01-27T14:12:18;8.50;;;2.20;;
19965;SDS011;10144;50.874;4.762;2024-01-27T14:14:45;12.10;;;2.70;;
19965;SDS011;10144;50.874;4.762;2024-01-27T14:19:43;18.83;;;3.60;;
19965;SDS011;10144;50.874;4.762;2024-01-27T14:22:15;14.00;;;2.70;;
19965;SDS011;10144;50.874;4.762;2024-01-27T14:27:12;9.87;;;2.37;;
19965;SDS011;10144;50.874;4.762;2024-01-27T14:32:10;9.23;;;2.40;;
19965;SDS011;10144;50.874;4.762;2024-01-27T14:34:38;14.13;;;2.83;;
19965;SDS011;10144;50.874;4.762;2024-01-27T14:37:10;14.93;;;3.33;;
19965;SDS011;10144;50.874;4.762;2024-01-27T14:39:46;16.10;;;3.53;;
19965;SDS011;10144;50.874;4.762;2024-01-27T14:42:18;13.33;;;3.47;;
19965;SDS011;10144;50.874;4.762;2024-01-27T14:44:46;14.17;;;2.67;;
19965;SDS011;10144;50.874;4.762;2024-01-27T14:47:14;12.43;;;2.93;;
19965;SDS011;10144;50.874;4.762;2024-01-27T14:49:46;11.33;;;2.30;;
19965;SDS011;10144;50.874;4.762;2024-01-27T14:52:17;14.03;;;2.60;;
19965;SDS011;10144;50.874;4.762;2024-01-27T14:54:45;13.63;;;2.60;;
19965;SDS011;10144;50.874;4.762;2024-01-27T14:57:12;10.80;;;2.67;;
19965;SDS011;10144;50.874;4.762;2024-01-27T14:59:41;15.17;;;3.00;;
19965;SDS011;10144;50.874;4.762;2024-01-27T15:02:10;8.87;;;2.40;;
19965;SDS011;10144;50.874;4.762;2024-01-27T15:04:37;13.37;;;2.67;;
19965;SDS011;10144;50.874;4.762;2024-01-27T15:07:05;11.50;;;2.70;;
19965;SDS011;10144;50.874;4.762;2024-01-27T15:09:37;14.60;;;3.23;;
19965;SDS011;10144;50.874;4.762;2024-01-27T15:14:33;16.33;;;3.10;;
19965;SDS011;10144;50.874;4.762;2024-01-27T15:16:58;15.27;;;3.03;;
19965;SDS011;10144;50.874;4.762;2024-01-27T15:19:26;13.40;;;2.43;;
19965;SDS011;10144;50.874;4.762;2024-01-27T15:21:52;14.63;;;3.37;;
19965;SDS011;10144;50.874;4.762;2024-01-27T15:24:18;12.50;;;2.40;;
19965;SDS011;10144;50.874;4.762;2024-01-27T15:26:44;13.63;;;2.43;;
19965;SDS011;10144;50.874;4.762;2024-01-27T15:29:10;13.87;;;2.97;;
19965;SDS011;10144;50.874;4.762;2024-01-27T15:31:37;13.67;;;2.57;;
19965;SDS011;10144;50.874;4.762;2024-01-27T15:34:03;12.60;;;2.60;;
19965;SDS011;10144;50.874;4.762;2024-01-27T15:36:30;13.63;;;2.60;;
19965;SDS011;10144;50.874;4.762;2024-01-27T15:38:56;11.80;;;2.40;;
19965;SDS011;10144;50.874;4.762;2024-01-27T15:41:22;13.43;;;2.43;;
19965;SDS011;10144;50.874;4.762;2024-01-27T15:43:48;8.27;;;2.30;;
19965;SDS011;10144;50.874;4.762;2024-01-27T15:46:15;10.27;;;2.40;;
19965;SDS011;10144;50.874;4.762;2024-01-27T15:48:40;15.80;;;3.43;;
19965;SDS011;10144;50.874;4.762;2024-01-27T15:51:06;13.63;;;2.83;;
19965;SDS011;10144;50.874;4.762;2024-01-27T15:53:33;13.27;;;3.07;;
19965;SDS011;10144;50.874;4.762;2024-01-27T15:56:00;11.67;;;2.40;;
19965;SDS011;10144;50.874;4.762;2024-01-27T15:58:26;18.03;;;2.90;;
19965;SDS011;10144;50.874;4.762;2024-01-27T16:00:51;13.30;;;2.83;;
19965;SDS011;10144;50.874;4.762;2024-01-27T16:03:17;10.07;;;2.50;;
19965;SDS011;10144;50.874;4.762;2024-01-27T16:05:44;16.07;;;2.87;;
19965;SDS011;10144;50.874;4.762;2024-01-27T16:08:09;12.13;;;2.60;;
19965;SDS011;10144;50.874;4.762;2024-01-27T16:10:37;15.60;;;3.10;;
19965;SDS011;10144;50.874;4.762;2024-01-27T16:13:09;12.03;;;3.00;;
19965;SDS011;10144;50.874;4.762;2024-01-27T16:18:04;10.30;;;2.80;;
19965;SDS011;10144;50.874;4.762;2024-01-27T16:22:59;12.03;;;2.50;;
19965;SDS011;10144;50.874;4.762;2024-01-27T16:25:28;13.80;;;2.63;;
19965;SDS011;10144;50.874;4.762;2024-01-27T16:27:54;16.80;;;3.30;;
19965;SDS011;10144;50.874;4.762;2024-01-27T16:30:23;16.57;;;2.50;;
19965;SDS011;10144;50.874;4.762;2024-01-27T16:32:48;18.07;;;2.90;;
19965;SDS011;10144;50.874;4.762;2024-01-27T16:35:20;12.53;;;2.40;;
19965;SDS011;10144;50.874;4.762;2024-01-27T16:37:48;14.40;;;2.53;;
19965;SDS011;10144;50.874;4.762;2024-01-27T16:40:17;10.87;;;2.33;;
19965;SDS011;10144;50.874;4.762;2024-01-27T16:42:45;14.93;;;2.53;;
19965;SDS011;10144;50.874;4.762;2024-01-27T16:45:17;13.43;;;2.43;;
19965;SDS011;10144;50.874;4.762;2024-01-27T16:47:42;14.23;;;3.03;;
19965;SDS011;10144;50.874;4.762;2024-01-27T16:50:10;22.43;;;3.40;;
19965;SDS011;10144;50.874;4.762;2024-01-27T16:52:42;18.47;;;3.10;;
19965;SDS011;10144;50.874;4.762;2024-01-27T16:55:10;14.37;;;3.00;;
19965;SDS011;10144;50.874;4.762;2024-01-27T16:57:36;12.73;;;2.87;;
19965;SDS011;10144;50.874;4.762;2024-01-27T17:00:02;12.67;;;3.30;;
19965;SDS011;10144;50.874;4.762;2024-01-27T17:02:34;15.10;;;3.40;;
19965;SDS011;10144;50.874;4.762;2024-01-27T17:05:00;15.17;;;3.43;;
19965;SDS011;10144;50.874;4.762;2024-01-27T17:07:31;13.63;;;3.13;;
19965;SDS011;10144;50.874;4.762;2024-01-27T17:12:33;15.83;;;3.37;;
19965;SDS011;10144;50.874;4.762;2024-01-27T17:15:04;14.77;;;2.97;;
19965;SDS011;10144;50.874;4.762;2024-01-27T17:17:33;14.40;;;3.20;;
19965;SDS011;10144;50.874;4.762;2024-01-27T17:19:59;12.40;;;3.97;;
19965;SDS011;10144;50.874;4.762;2024-01-27T17:22:25;19.20;;;5.30;;
19965;SDS011;10144;50.874;4.762;2024-01-27T17:25:02;18.27;;;5.53;;
19965;SDS011;10144;50.874;4.762;2024-01-27T17:27:28;18.60;;;4.10;;
19965;SDS011;10144;50.874;4.762;2024-01-27T17:30:00;15.10;;;4.47;;
19965;SDS011;10144;50.874;4.762;2024-01-27T17:32:32;10.93;;;3.93;;
19965;SDS011;10144;50.874;4.762;2024-01-27T17:37:29;42.10;;;13.93;;
19965;SDS011;10144;50.874;4.762;2024-01-27T17:40:03;27.37;;;9.10;;
19965;SDS011;10144;50.874;4.762;2024-01-27T17:45:05;22.50;;;8.67;;
19965;SDS011;10144;50.874;4.762;2024-01-27T17:47:33;17.47;;;4.70;;
19965;SDS011;10144;50.874;4.762;2024-01-27T17:50:03;21.90;;;5.23;;
19965;SDS011;10144;50.874;4.762;2024-01-27T17:52:33;14.10;;;4.73;;
19965;SDS011;10144;50.874;4.762;2024-01-27T17:55:00;15.00;;;4.20;;
19965;SDS011;10144;50.874;4.762;2024-01-27T18:00:01;15.33;;;4.10;;
19965;SDS011;10144;50.874;4.762;2024-01-27T18:02:33;11.70;;;4.13;;
19965;SDS011;10144;50.874;4.762;2024-01-27T18:04:59;14.97;;;4.63;;
19965;SDS011;10144;50.874;4.762;2024-01-27T18:07:28;22.23;;;4.40;;
19965;SDS011;10144;50.874;4.762;2024-01-27T18:09:55;15.37;;;4.23;;
19965;SDS011;10144;50.874;4.762;2024-01-27T18:12:20;17.80;;;5.00;;
19965;SDS011;10144;50.874;4.762;2024-01-27T18:14:48;17.60;;;4.50;;
19965;SDS011;10144;50.874;4.762;2024-01-27T18:19:45;19.43;;;4.87;;
19965;SDS011;10144;50.874;4.762;2024-01-27T18:22:15;22.10;;;4.60;;
19965;SDS011;10144;50.874;4.762;2024-01-27T18:24:40;21.50;;;4.73;;
19965;SDS011;10144;50.874;4.762;2024-01-27T18:27:06;25.57;;;5.10;;
19965;SDS011;10144;50.874;4.762;2024-01-27T18:29:35;15.67;;;5.10;;
19965;SDS011;10144;50.874;4.762;2024-01-27T18:34:33;20.47;;;4.53;;
19965;SDS011;10144;50.874;4.762;2024-01-27T18:36:59;14.90;;;4.70;;
19965;SDS011;10144;50.874;4.762;2024-01-27T18:39:24;16.03;;;4.37;;